createdAt,value
2022-10-18T00:01:09.688Z,4.30
2022-10-18T00:03:38.118Z,3.60
2022-10-18T00:06:06.796Z,4.30
2022-10-18T00:08:36.792Z,3.72
2022-10-18T00:11:05.178Z,3.50
2022-10-18T00:13:33.721Z,3.72
2022-10-18T00:16:03.337Z,3.53
2022-10-18T00:18:31.385Z,3.45
2022-10-18T00:21:01.209Z,3.88
2022-10-18T00:23:30.952Z,3.45
2022-10-18T00:26:05.815Z,3.70
2022-10-18T00:28:34.362Z,3.90
2022-10-18T00:31:11.694Z,3.92
2022-10-18T00:33:39.396Z,4.15
2022-10-18T00:36:07.887Z,3.58
2022-10-18T00:38:36.084Z,3.90
2022-10-18T00:41:06.709Z,4.10
2022-10-18T00:43:51.577Z,3.65
2022-10-18T00:46:19.258Z,4.55
2022-10-18T00:48:47.578Z,4.43
2022-10-18T00:51:17.798Z,4.25
2022-10-18T00:53:46.116Z,3.88
2022-10-18T00:56:15.515Z,4.40
2022-10-18T00:58:44.220Z,3.88
2022-10-18T01:01:12.239Z,4.20
2022-10-18T01:06:09.650Z,3.92
2022-10-18T01:08:59.456Z,4.22
2022-10-18T01:11:59.621Z,4.13
2022-10-18T01:17:08.908Z,3.83
2022-10-18T01:20:12.995Z,3.58
2022-10-18T01:22:45.657Z,3.85
2022-10-18T01:25:30.887Z,4.30
2022-10-18T01:28:09.619Z,4.25
2022-10-18T01:30:47.285Z,4.63
2022-10-18T01:33:22.695Z,4.70
2022-10-18T01:35:54.782Z,5.03
2022-10-18T01:38:26.290Z,4.90
2022-10-18T01:40:55.983Z,4.28
2022-10-18T01:43:25.471Z,4.63
2022-10-18T01:45:56.662Z,4.55
2022-10-18T01:48:24.827Z,4.43
2022-10-18T01:53:39.648Z,4.60
2022-10-18T01:56:26.211Z,4.93
2022-10-18T01:59:10.390Z,4.47
2022-10-18T02:01:46.580Z,5.00
2022-10-18T02:04:24.054Z,4.78
2022-10-18T02:06:59.101Z,4.53
2022-10-18T02:09:35.567Z,4.10
2022-10-18T02:12:04.758Z,5.13
2022-10-18T02:14:34.404Z,4.57
2022-10-18T02:17:07.880Z,4.30
2022-10-18T02:19:40.527Z,4.57
2022-10-18T02:22:11.821Z,5.32
2022-10-18T02:24:43.433Z,4.60
2022-10-18T02:27:11.933Z,5.20
2022-10-18T02:29:41.584Z,4.47
2022-10-18T02:32:15.145Z,4.78
2022-10-18T02:34:45.348Z,4.28
2022-10-18T02:37:14.927Z,4.20
2022-10-18T02:39:46.493Z,4.22
2022-10-18T02:42:15.195Z,4.18
2022-10-18T02:44:43.239Z,4.32
2022-10-18T02:47:13.158Z,4.25
2022-10-18T02:49:40.863Z,4.35
2022-10-18T02:52:08.679Z,4.22
2022-10-18T02:54:37.210Z,4.28
2022-10-18T02:57:05.181Z,4.07
2022-10-18T02:59:32.885Z,4.22
2022-10-18T03:02:00.665Z,4.28
2022-10-18T03:04:29.780Z,4.35
2022-10-18T03:06:57.551Z,4.40
2022-10-18T03:09:25.568Z,4.50
2022-10-18T03:11:53.503Z,4.05
2022-10-18T03:14:21.215Z,4.45
2022-10-18T03:16:49.029Z,3.95
2022-10-18T03:19:16.948Z,3.95
2022-10-18T03:21:46.099Z,4.22
2022-10-18T03:24:13.896Z,4.22
2022-10-18T03:26:41.804Z,4.45
2022-10-18T03:29:11.125Z,4.32
2022-10-18T03:31:39.271Z,4.32
2022-10-18T03:36:35.051Z,3.97
2022-10-18T03:41:31.806Z,3.33
2022-10-18T03:43:59.617Z,3.88
2022-10-18T03:46:28.725Z,4.03
2022-10-18T03:48:56.620Z,3.92
2022-10-18T03:51:24.346Z,3.78
2022-10-18T03:53:52.123Z,4.18
2022-10-18T03:56:21.354Z,3.72
2022-10-18T03:58:49.034Z,3.53
2022-10-18T04:01:17.761Z,3.72
2022-10-18T04:03:45.651Z,4.18
2022-10-18T04:06:13.431Z,3.78
2022-10-18T04:08:41.205Z,3.67
2022-10-18T04:11:09.908Z,3.95
2022-10-18T04:13:39.364Z,3.97
2022-10-18T04:16:07.531Z,3.65
2022-10-18T04:21:03.163Z,3.53
2022-10-18T04:23:32.794Z,3.70
2022-10-18T04:26:04.259Z,3.40
2022-10-18T04:28:32.185Z,4.00
2022-10-18T04:31:01.554Z,4.68
2022-10-18T04:33:29.386Z,5.15
2022-10-18T04:35:57.279Z,4.28
2022-10-18T04:38:25.108Z,4.35
2022-10-18T04:40:52.945Z,4.90
2022-10-18T04:43:21.005Z,4.05
2022-10-18T04:45:51.171Z,3.72
2022-10-18T04:48:21.207Z,3.95
2022-10-18T04:50:49.795Z,3.88
2022-10-18T04:53:18.576Z,3.42
2022-10-18T04:55:46.803Z,3.35
2022-10-18T05:00:42.635Z,3.70
2022-10-18T05:03:11.791Z,3.97
2022-10-18T05:06:00.097Z,4.32
2022-10-18T05:08:29.726Z,4.28
2022-10-18T05:10:57.778Z,4.10
2022-10-18T05:15:53.620Z,3.90
2022-10-18T05:20:50.380Z,4.32
2022-10-18T05:23:18.375Z,3.50
2022-10-18T05:25:46.232Z,3.65
2022-10-18T05:28:38.205Z,3.47
2022-10-18T05:31:03.396Z,3.67
2022-10-18T05:33:31.292Z,2.80
2022-10-18T05:36:00.619Z,3.17
2022-10-18T05:38:31.041Z,2.72
2022-10-18T05:40:59.138Z,2.97
2022-10-18T05:43:28.961Z,3.05
2022-10-18T05:45:57.035Z,4.22
2022-10-18T05:48:25.095Z,3.83
2022-10-18T05:50:52.957Z,3.65
2022-10-18T05:53:36.165Z,3.30
2022-10-18T05:56:05.430Z,3.35
2022-10-18T05:58:33.419Z,2.97
2022-10-18T06:01:02.084Z,2.88
2022-10-18T06:03:30.948Z,2.55
2022-10-18T06:06:02.637Z,2.67
2022-10-18T06:08:31.971Z,2.97
2022-10-18T06:11:00.335Z,3.30
2022-10-18T06:13:31.125Z,3.20
2022-10-18T06:16:00.490Z,3.50
2022-10-18T06:18:29.885Z,2.92
2022-10-18T06:20:59.109Z,2.53
2022-10-18T06:23:27.467Z,2.47
2022-10-18T06:26:00.131Z,3.00
2022-10-18T06:28:28.687Z,2.95
2022-10-18T06:30:56.921Z,3.22
2022-10-18T06:35:57.175Z,2.67
2022-10-18T06:38:25.295Z,2.92
2022-10-18T06:43:22.578Z,2.63
2022-10-18T06:45:50.497Z,2.80
2022-10-18T06:50:53.431Z,3.28
2022-10-18T06:53:21.253Z,2.65
2022-10-18T06:55:49.068Z,2.85
2022-10-18T06:58:17.778Z,3.47
2022-10-18T07:00:47.016Z,3.50
2022-10-18T07:03:14.737Z,3.60
2022-10-18T07:05:42.609Z,3.17
2022-10-18T07:08:10.377Z,3.53
2022-10-18T07:10:38.209Z,3.20
2022-10-18T07:13:30.901Z,3.45
2022-10-18T07:16:03.895Z,3.15
2022-10-18T07:18:32.728Z,2.97
2022-10-18T07:21:02.863Z,4.30
2022-10-18T07:23:30.900Z,3.85
2022-10-18T07:25:58.865Z,3.47
2022-10-18T07:28:26.782Z,3.75
2022-10-18T07:30:54.951Z,4.13
2022-10-18T07:33:26.043Z,4.32
2022-10-18T07:35:53.925Z,3.80
2022-10-18T07:38:22.745Z,3.88
2022-10-18T07:40:57.169Z,3.67
2022-10-18T07:43:25.076Z,4.07
2022-10-18T07:45:53.670Z,4.57
2022-10-18T07:48:21.544Z,4.10
2022-10-18T07:50:50.752Z,3.92
2022-10-18T07:53:18.797Z,4.00
2022-10-18T07:55:46.880Z,4.40
2022-10-18T07:58:14.565Z,4.20
2022-10-18T08:00:42.344Z,4.25
2022-10-18T08:03:10.265Z,4.35
2022-10-18T08:05:37.990Z,4.25
2022-10-18T08:08:08.170Z,3.90
2022-10-18T08:10:36.624Z,4.05
2022-10-18T08:13:04.495Z,4.15
2022-10-18T08:15:32.267Z,3.65
2022-10-18T08:18:00.044Z,3.45
2022-10-18T08:20:31.107Z,3.33
2022-10-18T08:23:00.616Z,3.28
2022-10-18T08:25:31.850Z,2.63
2022-10-18T08:28:01.643Z,3.45
2022-10-18T08:30:31.046Z,4.53
2022-10-18T08:32:58.969Z,3.70
2022-10-18T08:35:26.813Z,3.40
2022-10-18T08:37:54.571Z,3.00
2022-10-18T08:40:22.331Z,3.85
2022-10-18T08:43:02.867Z,3.72
2022-10-18T08:45:41.867Z,3.47
2022-10-18T08:48:21.874Z,3.75
2022-10-18T08:50:52.079Z,3.78
2022-10-18T08:53:25.549Z,3.95
2022-10-18T08:55:59.224Z,3.45
2022-10-18T08:58:31.874Z,3.60
2022-10-18T09:01:08.673Z,3.75
2022-10-18T09:04:07.148Z,3.20
2022-10-18T09:06:43.266Z,3.75
2022-10-18T09:09:26.002Z,3.80
2022-10-18T09:12:03.795Z,4.25
2022-10-18T09:14:51.379Z,3.75
2022-10-18T09:17:29.268Z,3.38
2022-10-18T09:20:10.843Z,3.45
2022-10-18T09:22:50.168Z,3.67
2022-10-18T09:25:21.212Z,3.10
2022-10-18T09:27:55.584Z,3.17
2022-10-18T09:30:41.629Z,3.35
2022-10-18T09:33:24.822Z,2.50
2022-10-18T09:35:57.735Z,3.25
2022-10-18T09:38:30.914Z,3.10
2022-10-18T09:41:02.227Z,3.15
2022-10-18T09:43:44.823Z,2.72
2022-10-18T09:46:15.133Z,3.08
2022-10-18T09:48:47.845Z,3.20
2022-10-18T09:51:22.050Z,2.92
2022-10-18T09:54:05.493Z,2.20
2022-10-18T09:56:41.875Z,2.42
2022-10-18T09:59:29.562Z,2.22
2022-10-18T10:04:26.679Z,2.35
2022-10-18T10:06:56.761Z,2.55
2022-10-18T10:09:29.540Z,2.40
2022-10-18T10:11:58.490Z,1.98
2022-10-18T10:14:27.978Z,2.05
2022-10-18T10:16:59.667Z,1.80
2022-10-18T10:19:31.709Z,2.05
2022-10-18T10:22:03.878Z,1.63
2022-10-18T10:24:42.943Z,1.73
2022-10-18T10:27:19.341Z,2.65
2022-10-18T10:29:57.670Z,2.15
2022-10-18T10:32:33.845Z,2.00
2022-10-18T10:35:01.652Z,2.08
2022-10-18T10:37:35.615Z,2.75
2022-10-18T10:40:19.037Z,1.90
2022-10-18T10:43:33.015Z,1.95
2022-10-18T10:46:03.226Z,1.90
2022-10-18T10:48:40.492Z,1.60
2022-10-18T10:51:11.043Z,1.88
2022-10-18T10:53:47.111Z,1.80
2022-10-18T10:56:34.320Z,2.22
2022-10-18T10:59:11.134Z,2.42
2022-10-18T11:01:39.025Z,1.70
2022-10-18T11:04:28.371Z,1.77
2022-10-18T11:07:05.579Z,1.77
2022-10-18T11:09:43.017Z,1.45
2022-10-18T11:12:24.446Z,1.40
2022-10-18T11:15:00.500Z,1.30
2022-10-18T11:17:35.357Z,1.50
2022-10-18T11:20:24.078Z,2.08
2022-10-18T11:23:04.494Z,1.70
2022-10-18T11:26:02.145Z,1.52
2022-10-18T11:28:41.738Z,1.55
2022-10-18T11:31:17.386Z,1.88
2022-10-18T11:34:09.862Z,1.83
2022-10-18T11:37:02.297Z,1.83
2022-10-18T11:39:49.753Z,2.20
2022-10-18T11:42:24.272Z,1.60
2022-10-18T11:45:03.379Z,1.95
2022-10-18T11:47:40.007Z,1.80
2022-10-18T11:50:26.229Z,1.80
2022-10-18T11:53:07.309Z,1.75
2022-10-18T11:55:49.318Z,1.92
2022-10-18T11:58:37.830Z,1.85
2022-10-18T12:01:18.857Z,2.45
2022-10-18T12:03:58.637Z,1.90
2022-10-18T12:06:31.180Z,2.00
2022-10-18T12:09:03.203Z,1.63
2022-10-18T12:11:34.289Z,1.73
2022-10-18T12:14:05.728Z,1.63
2022-10-18T12:17:07.618Z,1.90
2022-10-18T12:19:28.901Z,1.63
2022-10-18T12:21:59.063Z,1.90
2022-10-18T12:24:31.319Z,1.60
2022-10-18T12:27:01.003Z,1.52
2022-10-18T12:29:34.002Z,1.60
2022-10-18T12:32:07.017Z,1.52
2022-10-18T12:34:41.967Z,1.92
2022-10-18T12:37:40.235Z,1.20
2022-10-18T12:40:18.521Z,1.20
2022-10-18T12:42:50.351Z,1.17
2022-10-18T12:45:28.702Z,1.05
2022-10-18T12:48:00.443Z,1.20
2022-10-18T12:50:34.774Z,1.13
2022-10-18T12:55:39.401Z,1.50
2022-10-18T12:58:28.320Z,1.42
2022-10-18T13:01:07.720Z,1.75
2022-10-18T13:04:02.372Z,1.70
2022-10-18T13:07:03.999Z,1.65
2022-10-18T13:09:35.287Z,1.52
2022-10-18T13:12:43.237Z,1.75
2022-10-18T13:15:41.336Z,1.60
2022-10-18T13:18:23.934Z,1.48
2022-10-18T13:21:03.081Z,1.60
2022-10-18T13:23:43.518Z,1.52
2022-10-18T13:26:25.889Z,1.23
2022-10-18T13:29:04.046Z,1.10
2022-10-18T13:31:41.420Z,0.80
2022-10-18T13:34:25.493Z,0.93
2022-10-18T13:36:59.107Z,0.90
2022-10-18T13:39:27.652Z,0.90
2022-10-18T13:42:21.908Z,1.00
2022-10-18T13:44:51.776Z,1.02
2022-10-18T13:47:40.423Z,1.50
2022-10-18T13:50:35.253Z,1.50
2022-10-18T13:53:31.634Z,1.20
2022-10-18T13:56:25.887Z,1.02
2022-10-18T13:59:15.100Z,1.02
2022-10-18T14:01:58.675Z,1.30
2022-10-18T14:04:43.520Z,1.13
2022-10-18T14:07:12.851Z,1.08
2022-10-18T14:09:48.909Z,1.17
2022-10-18T14:12:27.844Z,1.20
2022-10-18T14:15:03.102Z,1.20
2022-10-18T14:20:24.623Z,1.23
2022-10-18T14:22:58.799Z,2.22
2022-10-18T14:25:30.030Z,1.23
2022-10-18T14:28:12.362Z,1.30
2022-10-18T14:30:53.685Z,1.30
2022-10-18T14:33:34.151Z,1.10
2022-10-18T14:36:14.495Z,0.90
2022-10-18T14:38:50.038Z,1.20
2022-10-18T14:43:48.118Z,1.10
2022-10-18T14:46:28.115Z,1.38
2022-10-18T14:49:01.161Z,1.17
2022-10-18T14:51:33.849Z,1.13
2022-10-18T14:54:02.235Z,1.08
2022-10-18T14:56:31.965Z,1.10
2022-10-18T14:59:03.272Z,1.05
2022-10-18T15:01:33.271Z,1.50
2022-10-18T15:04:06.865Z,1.50
2022-10-18T15:06:34.900Z,1.00
2022-10-18T15:09:05.322Z,1.00
2022-10-18T15:11:33.965Z,0.85
2022-10-18T15:14:06.819Z,0.80
2022-10-18T15:16:35.509Z,1.00
2022-10-18T15:19:07.397Z,0.95
2022-10-18T15:21:36.486Z,0.82
2022-10-18T15:24:22.145Z,0.80
2022-10-18T15:26:51.599Z,0.80
2022-10-18T15:29:21.212Z,1.27
2022-10-18T15:31:50.413Z,0.93
2022-10-18T15:35:10.746Z,0.98
2022-10-18T15:37:43.156Z,1.10
2022-10-18T15:40:31.714Z,1.05
2022-10-18T15:43:01.499Z,0.73
2022-10-18T15:45:32.796Z,0.80
2022-10-18T15:48:19.510Z,0.98
2022-10-18T15:50:50.168Z,1.23
2022-10-18T15:53:32.311Z,0.82
2022-10-18T15:56:02.907Z,1.02
2022-10-18T15:58:39.086Z,1.08
2022-10-18T16:01:14.862Z,0.85
2022-10-18T16:03:43.626Z,0.93
2022-10-18T16:06:15.885Z,0.70
2022-10-18T16:11:17.743Z,1.65
2022-10-18T16:13:46.083Z,1.38
2022-10-18T16:16:17.371Z,1.25
2022-10-18T16:18:45.255Z,1.10
2022-10-18T16:21:21.946Z,0.85
2022-10-18T16:23:51.783Z,0.93
2022-10-18T16:26:20.960Z,1.77
2022-10-18T16:28:50.522Z,1.52
2022-10-18T16:31:20.867Z,1.50
2022-10-18T16:33:49.727Z,1.00
2022-10-18T16:36:19.200Z,0.95
2022-10-18T16:38:48.060Z,1.00
2022-10-18T16:41:17.733Z,0.82
2022-10-18T16:43:47.094Z,0.80
2022-10-18T16:46:18.060Z,0.95
2022-10-18T16:48:47.053Z,0.70
2022-10-18T16:51:16.427Z,0.88
2022-10-18T16:53:44.979Z,0.65
2022-10-18T16:56:15.857Z,0.82
2022-10-18T16:58:45.827Z,0.65
2022-10-18T17:01:14.985Z,0.85
2022-10-18T17:03:43.144Z,0.82
2022-10-18T17:06:16.182Z,0.60
2022-10-18T17:08:44.387Z,0.93
2022-10-18T17:11:13.484Z,0.70
2022-10-18T17:13:41.755Z,0.93
2022-10-18T17:16:23.135Z,0.82
2022-10-18T17:18:51.329Z,0.90
2022-10-18T17:23:48.551Z,1.00
2022-10-18T17:26:28.554Z,0.80
2022-10-18T17:28:59.733Z,0.98
2022-10-18T17:31:29.381Z,1.27
2022-10-18T17:33:58.728Z,1.35
2022-10-18T17:36:27.165Z,1.08
2022-10-18T17:38:56.235Z,1.02
2022-10-18T17:41:24.488Z,1.13
2022-10-18T17:43:52.291Z,1.50
2022-10-18T17:46:20.570Z,1.35
2022-10-18T17:48:50.190Z,1.40
2022-10-18T17:51:18.838Z,1.20
2022-10-18T17:53:47.801Z,0.95
2022-10-18T17:56:16.445Z,1.13
2022-10-18T17:58:45.292Z,0.98
2022-10-18T18:01:14.668Z,1.00
2022-10-18T18:03:43.725Z,1.10
2022-10-18T18:06:18.808Z,1.02
2022-10-18T18:08:47.124Z,0.90
2022-10-18T18:11:15.428Z,1.05
2022-10-18T18:13:43.424Z,0.85
2022-10-18T18:16:13.026Z,1.30
2022-10-18T18:18:40.843Z,0.90
2022-10-18T18:21:09.086Z,1.20
2022-10-18T18:23:38.654Z,1.00
2022-10-18T18:26:06.617Z,0.93
2022-10-18T18:28:36.147Z,1.10
2022-10-18T18:31:07.890Z,1.30
2022-10-18T18:33:36.084Z,1.10
2022-10-18T18:36:04.984Z,0.82
2022-10-18T18:38:33.887Z,1.00
2022-10-18T18:41:08.361Z,0.90
2022-10-18T18:43:36.655Z,1.20
2022-10-18T18:46:05.123Z,1.10
2022-10-18T18:48:34.503Z,0.90
2022-10-18T18:51:03.234Z,0.90
2022-10-18T18:53:31.678Z,1.13
2022-10-18T18:56:04.520Z,1.20
2022-10-18T18:58:35.482Z,0.90
2022-10-18T19:01:07.829Z,1.02
2022-10-18T19:03:36.131Z,1.27
2022-10-18T19:06:05.935Z,1.15
2022-10-18T19:08:36.477Z,1.05
2022-10-18T19:11:08.114Z,1.23
2022-10-18T19:13:38.646Z,1.30
2022-10-18T19:16:25.133Z,0.90
2022-10-18T19:18:59.020Z,0.90
2022-10-18T19:21:29.541Z,1.05
2022-10-18T19:23:57.780Z,1.00
2022-10-18T19:26:34.480Z,1.10
2022-10-18T19:29:09.074Z,1.10
2022-10-18T19:31:38.524Z,0.77
2022-10-18T19:34:08.729Z,1.20
2022-10-18T19:36:37.947Z,0.90
2022-10-18T19:39:07.666Z,1.00
2022-10-18T19:41:36.143Z,0.88
2022-10-18T19:44:05.835Z,0.90
2022-10-18T19:46:33.926Z,1.08
2022-10-18T19:49:01.962Z,0.93
2022-10-18T19:51:29.920Z,1.13
2022-10-18T19:53:58.399Z,0.90
2022-10-18T19:56:28.366Z,1.13
2022-10-18T19:58:57.325Z,1.15
2022-10-18T20:01:28.526Z,1.10
2022-10-18T20:03:56.970Z,1.10
2022-10-18T20:06:25.009Z,1.00
2022-10-18T20:08:53.389Z,0.95
2022-10-18T20:11:23.131Z,1.17
2022-10-18T20:13:51.581Z,1.08
2022-10-18T20:16:26.908Z,1.30
2022-10-18T20:18:58.510Z,1.27
2022-10-18T20:21:27.160Z,1.35
2022-10-18T20:23:55.300Z,1.48
2022-10-18T20:28:56.293Z,1.67
2022-10-18T20:31:25.923Z,1.40
2022-10-18T20:34:00.157Z,1.70
2022-10-18T20:36:29.158Z,1.90
2022-10-18T20:38:57.496Z,1.30
2022-10-18T20:41:27.794Z,1.33
2022-10-18T20:43:57.485Z,1.45
2022-10-18T20:46:25.762Z,1.73
2022-10-18T20:48:54.996Z,1.98
2022-10-18T20:51:24.914Z,2.35
2022-10-18T20:53:53.524Z,1.75
2022-10-18T20:56:22.871Z,1.70
2022-10-18T20:58:51.905Z,1.63
2022-10-18T21:01:22.062Z,2.13
2022-10-18T21:03:51.971Z,1.80
2022-10-18T21:06:21.563Z,1.73
2022-10-18T21:08:53.863Z,1.40
2022-10-18T21:11:21.676Z,1.80
2022-10-18T21:13:51.970Z,1.60
2022-10-18T21:16:20.203Z,1.60
2022-10-18T21:18:48.619Z,1.92
2022-10-18T21:21:18.527Z,1.70
2022-10-18T21:23:46.881Z,1.77
2022-10-18T21:26:17.898Z,1.58
2022-10-18T21:28:46.096Z,2.00
2022-10-18T21:31:17.016Z,1.58
2022-10-18T21:33:45.728Z,1.48
2022-10-18T21:36:14.553Z,1.60
2022-10-18T21:38:46.571Z,1.60
2022-10-18T21:41:17.695Z,1.58
2022-10-18T21:43:47.275Z,2.08
2022-10-18T21:46:16.903Z,1.75
2022-10-18T21:48:45.857Z,1.60
2022-10-18T21:51:15.695Z,1.58
2022-10-18T21:53:44.697Z,1.45
2022-10-18T21:56:14.584Z,1.90
2022-10-18T21:58:44.215Z,1.27
2022-10-18T22:01:14.103Z,1.48
2022-10-18T22:03:43.002Z,1.70
2022-10-18T22:06:14.141Z,1.52
2022-10-18T22:08:42.661Z,1.67
2022-10-18T22:11:11.150Z,1.60
2022-10-18T22:13:39.045Z,1.35
2022-10-18T22:16:10.374Z,1.75
2022-10-18T22:18:38.137Z,1.50
2022-10-18T22:21:08.904Z,1.13
2022-10-18T22:23:42.375Z,1.50
2022-10-18T22:26:12.267Z,1.30
2022-10-18T22:28:41.249Z,1.40
2022-10-18T22:31:16.564Z,1.60
2022-10-18T22:33:44.543Z,1.92
2022-10-18T22:36:13.265Z,1.17
2022-10-18T22:38:41.158Z,1.30
2022-10-18T22:41:10.247Z,1.50
2022-10-18T22:43:38.665Z,1.80
2022-10-18T22:46:08.916Z,1.52
2022-10-18T22:48:38.660Z,1.50
2022-10-18T22:51:06.915Z,1.25
2022-10-18T22:53:35.220Z,1.88
2022-10-18T22:56:04.498Z,1.40
2022-10-18T22:58:32.866Z,1.70
2022-10-18T23:01:02.883Z,1.60
2022-10-18T23:03:30.842Z,1.48
2022-10-18T23:06:00.498Z,1.38
2022-10-18T23:08:28.633Z,1.30
2022-10-18T23:13:26.213Z,1.45
2022-10-18T23:15:54.780Z,1.40
2022-10-18T23:18:22.597Z,1.40
2022-10-18T23:20:50.418Z,1.15
2022-10-18T23:23:19.698Z,1.33
2022-10-18T23:25:51.080Z,1.33
2022-10-18T23:28:19.790Z,1.30
2022-10-18T23:30:47.723Z,1.20
2022-10-18T23:33:15.520Z,1.63
2022-10-18T23:35:43.368Z,1.58
2022-10-18T23:38:11.210Z,1.50
2022-10-18T23:40:40.311Z,1.75
2022-10-18T23:43:08.105Z,1.50
2022-10-18T23:45:36.083Z,1.30
2022-10-18T23:48:03.989Z,1.30
2022-10-18T23:50:31.825Z,1.42
2022-10-18T23:52:59.606Z,1.42
2022-10-18T23:55:27.477Z,1.35
2022-10-18T23:57:56.686Z,1.80
